createdAt,value
2023-06-11T00:00:33.521Z,101654.78
2023-06-11T00:03:00.152Z,101650.50
2023-06-11T00:05:29.128Z,101652.25
2023-06-11T00:07:57.055Z,101647.56
2023-06-11T00:10:24.253Z,101642.00
2023-06-11T00:12:50.840Z,101654.47
2023-06-11T00:15:17.400Z,101642.47
2023-06-11T00:17:44.108Z,101648.94
2023-06-11T00:20:12.690Z,101643.13
2023-06-11T00:22:40.613Z,101643.06
2023-06-11T00:25:11.616Z,101647.09
2023-06-11T00:27:38.579Z,101638.59
2023-06-11T00:30:07.519Z,101634.31
2023-06-11T00:32:36.526Z,101635.75
2023-06-11T00:35:08.003Z,101636.75
2023-06-11T00:37:35.550Z,101639.78
2023-06-11T00:40:02.688Z,101638.22
2023-06-11T00:42:29.288Z,101632.13
2023-06-11T00:44:55.871Z,101624.63
2023-06-11T00:47:22.655Z,101637.47
2023-06-11T00:49:49.265Z,101628.47
2023-06-11T00:52:16.867Z,101640.78
2023-06-11T00:54:43.536Z,101626.72
2023-06-11T00:57:10.382Z,101635.00
2023-06-11T00:59:39.738Z,101634.44
2023-06-11T01:02:22.532Z,101638.69
2023-06-11T01:04:58.372Z,101642.69
2023-06-11T01:07:31.362Z,101647.25
2023-06-11T01:09:59.468Z,101639.50
2023-06-11T01:12:26.448Z,101635.50
2023-06-11T01:14:53.936Z,101642.75
2023-06-11T01:17:30.689Z,101638.75
2023-06-11T01:20:15.642Z,101643.91
2023-06-11T01:23:15.535Z,101635.91
2023-06-11T01:26:16.258Z,101645.81
2023-06-11T01:28:47.245Z,101644.50
2023-06-11T01:31:16.283Z,101641.56
2023-06-11T01:33:44.012Z,101639.19
2023-06-11T01:36:12.170Z,101643.72
2023-06-11T01:38:46.032Z,101645.06
2023-06-11T01:41:13.434Z,101644.28
2023-06-11T01:43:40.093Z,101640.53
2023-06-11T01:46:06.825Z,101648.28
2023-06-11T01:48:33.774Z,101650.47
2023-06-11T01:51:00.826Z,101643.53
2023-06-11T01:53:27.630Z,101637.66
2023-06-11T01:55:56.181Z,101643.53
2023-06-11T01:58:23.001Z,101639.53
2023-06-11T02:00:49.597Z,101644.34
2023-06-11T02:03:17.041Z,101633.13
2023-06-11T02:05:44.438Z,101641.41
2023-06-11T02:08:11.503Z,101637.41
2023-06-11T02:10:38.220Z,101641.41
2023-06-11T02:13:04.727Z,101639.53
2023-06-11T02:15:31.205Z,101635.03
2023-06-11T02:17:57.844Z,101640.09
2023-06-11T02:20:24.483Z,101634.22
2023-06-11T02:22:51.060Z,101639.81
2023-06-11T02:25:17.626Z,101637.66
2023-06-11T02:27:44.317Z,101627.53
2023-06-11T02:30:11.508Z,101632.09
2023-06-11T02:32:38.235Z,101632.59
2023-06-11T02:35:05.119Z,101627.81
2023-06-11T02:37:31.630Z,101631.53
2023-06-11T02:39:58.133Z,101631.28
2023-06-11T02:42:24.955Z,101624.88
2023-06-11T02:44:51.449Z,101638.47
2023-06-11T02:47:18.048Z,101634.19
2023-06-11T02:49:44.741Z,101636.31
2023-06-11T02:52:11.303Z,101641.38
2023-06-11T02:54:37.808Z,101647.75
2023-06-11T02:57:04.693Z,101640.53
2023-06-11T02:59:31.232Z,101643.44
2023-06-11T03:01:57.913Z,101641.06
2023-06-11T03:04:24.542Z,101631.97
2023-06-11T03:06:51.167Z,101632.53
2023-06-11T03:09:17.971Z,101639.22
2023-06-11T03:11:44.644Z,101641.09
2023-06-11T03:14:11.179Z,101641.09
2023-06-11T03:16:37.812Z,101645.88
2023-06-11T03:19:04.396Z,101649.63
2023-06-11T03:21:30.982Z,101655.22
2023-06-11T03:23:57.757Z,101646.97
2023-06-11T03:26:25.552Z,101645.34
2023-06-11T03:28:52.154Z,101645.38
2023-06-11T03:31:18.878Z,101644.31
2023-06-11T03:33:45.460Z,101646.97
2023-06-11T03:36:11.953Z,101649.63
2023-06-11T03:38:38.473Z,101654.19
2023-06-11T03:41:05.307Z,101658.19
2023-06-11T03:43:32.006Z,101653.63
2023-06-11T03:45:58.595Z,101658.16
2023-06-11T03:48:25.280Z,101653.63
2023-06-11T03:50:51.830Z,101652.31
2023-06-11T03:53:19.490Z,101654.72
2023-06-11T03:55:46.146Z,101664.06
2023-06-11T03:58:12.737Z,101665.13
2023-06-11T04:00:39.246Z,101665.13
2023-06-11T04:03:05.997Z,101669.69
2023-06-11T04:05:38.346Z,101664.09
2023-06-11T04:08:05.622Z,101661.94
2023-06-11T04:10:32.986Z,101664.59
2023-06-11T04:12:59.540Z,101659.00
2023-06-11T04:15:26.896Z,101656.84
2023-06-11T04:17:53.556Z,101660.84
2023-06-11T04:20:20.440Z,101658.72
2023-06-11T04:22:47.005Z,101664.31
2023-06-11T04:25:13.878Z,101661.13
2023-06-11T04:27:40.898Z,101652.88
2023-06-11T04:30:08.461Z,101660.31
2023-06-11T04:32:38.153Z,101656.03
2023-06-11T04:35:05.673Z,101652.50
2023-06-11T04:37:39.204Z,101650.28
2023-06-11T04:40:10.822Z,101662.75
2023-06-11T04:42:41.822Z,101666.16
2023-06-11T04:45:10.956Z,101661.50
2023-06-11T04:47:38.586Z,101660.94
2023-06-11T04:50:06.281Z,101666.25
2023-06-11T04:52:39.037Z,101660.63
2023-06-11T04:55:11.292Z,101665.97
2023-06-11T04:57:38.446Z,101667.72
2023-06-11T05:00:09.578Z,101668.69
2023-06-11T05:02:39.969Z,101665.44
2023-06-11T05:05:07.355Z,101661.81
2023-06-11T05:07:34.322Z,101653.38
2023-06-11T05:10:01.397Z,101659.34
2023-06-11T05:12:28.013Z,101663.69
2023-06-11T05:14:54.667Z,101651.69
2023-06-11T05:17:21.319Z,101665.06
2023-06-11T05:19:48.011Z,101661.84
2023-06-11T05:22:14.607Z,101665.03
2023-06-11T05:24:43.890Z,101663.00
2023-06-11T05:27:10.658Z,101654.88
2023-06-11T05:29:39.199Z,101655.16
2023-06-11T05:32:06.869Z,101660.41
2023-06-11T05:34:34.348Z,101655.94
2023-06-11T05:37:02.186Z,101659.44
2023-06-11T05:39:28.868Z,101659.44
2023-06-11T05:41:55.573Z,101663.69
2023-06-11T05:44:22.152Z,101664.50
2023-06-11T05:46:48.801Z,101663.41
2023-06-11T05:49:15.410Z,101671.41
2023-06-11T05:51:41.905Z,101665.16
2023-06-11T05:54:08.592Z,101660.25
2023-06-11T05:56:35.186Z,101658.56
2023-06-11T05:59:01.857Z,101656.09
2023-06-11T06:01:29.673Z,101663.28
2023-06-11T06:03:56.501Z,101664.28
2023-06-11T06:06:23.085Z,101664.50
2023-06-11T06:08:49.635Z,101674.66
2023-06-11T06:11:16.235Z,101678.03
2023-06-11T06:13:42.758Z,101669.13
2023-06-11T06:16:09.489Z,101675.50
2023-06-11T06:18:36.486Z,101678.38
2023-06-11T06:21:03.122Z,101677.50
2023-06-11T06:23:29.682Z,101681.72
2023-06-11T06:25:56.176Z,101687.00
2023-06-11T06:28:22.737Z,101687.22
2023-06-11T06:30:50.290Z,101682.53
2023-06-11T06:33:17.612Z,101679.78
2023-06-11T06:35:44.365Z,101684.47
2023-06-11T06:38:10.931Z,101678.22
2023-06-11T06:40:37.544Z,101684.00
2023-06-11T06:43:04.100Z,101684.22
2023-06-11T06:45:30.654Z,101687.28
2023-06-11T06:47:57.233Z,101689.88
2023-06-11T06:50:23.931Z,101689.78
2023-06-11T06:52:50.442Z,101692.59
2023-06-11T06:55:17.138Z,101696.78
2023-06-11T06:57:43.773Z,101694.06
2023-06-11T07:00:11.341Z,101692.00
2023-06-11T07:02:38.182Z,101691.19
2023-06-11T07:05:05.110Z,101693.94
2023-06-11T07:07:31.714Z,101692.94
2023-06-11T07:09:58.254Z,101690.84
2023-06-11T07:12:24.880Z,101689.25
2023-06-11T07:14:51.535Z,101691.81
2023-06-11T07:17:19.490Z,101698.44
2023-06-11T07:19:46.460Z,101699.78
2023-06-11T07:22:13.047Z,101697.50
2023-06-11T07:24:40.614Z,101698.34
2023-06-11T07:27:08.167Z,101696.31
2023-06-11T07:29:34.675Z,101696.63
2023-06-11T07:32:01.235Z,101704.69
2023-06-11T07:34:27.855Z,101699.94
2023-06-11T07:36:54.480Z,101700.72
2023-06-11T07:39:21.096Z,101700.72
2023-06-11T07:41:47.584Z,101691.78
2023-06-11T07:44:14.156Z,101695.03
2023-06-11T07:46:40.975Z,101691.38
2023-06-11T07:49:07.717Z,101695.34
2023-06-11T07:51:34.284Z,101688.53
2023-06-11T07:54:01.470Z,101697.63
2023-06-11T07:56:28.167Z,101694.38
2023-06-11T07:58:55.955Z,101692.59
2023-06-11T08:01:22.548Z,101698.66
2023-06-11T08:03:49.216Z,101692.38
2023-06-11T08:06:16.379Z,101696.53
2023-06-11T08:08:43.339Z,101688.66
2023-06-11T08:11:10.065Z,101700.13
2023-06-11T08:13:36.589Z,101696.94
2023-06-11T08:16:03.887Z,101697.78
2023-06-11T08:18:30.463Z,101702.06
2023-06-11T08:20:57.554Z,101698.31
2023-06-11T08:23:24.205Z,101695.78
2023-06-11T08:25:50.922Z,101694.53
2023-06-11T08:28:17.409Z,101687.38
2023-06-11T08:30:43.965Z,101690.69
2023-06-11T08:33:10.719Z,101680.84
2023-06-11T08:35:37.283Z,101688.16
2023-06-11T08:38:04.005Z,101684.34
2023-06-11T08:40:30.670Z,101687.50
2023-06-11T08:42:57.250Z,101678.91
2023-06-11T08:45:23.761Z,101681.59
2023-06-11T08:47:53.483Z,101684.13
2023-06-11T08:50:22.046Z,101678.34
2023-06-11T08:52:52.959Z,101675.78
2023-06-11T08:55:19.761Z,101679.25
2023-06-11T08:57:47.156Z,101679.06
2023-06-11T09:00:14.615Z,101677.72
2023-06-11T09:02:41.538Z,101676.09
2023-06-11T09:05:08.695Z,101673.88
2023-06-11T09:07:37.275Z,101681.50
2023-06-11T09:10:11.997Z,101671.78
2023-06-11T09:12:38.979Z,101670.38
2023-06-11T09:15:06.853Z,101668.09
2023-06-11T09:17:42.108Z,101676.81
2023-06-11T09:20:11.599Z,101680.13
2023-06-11T09:22:39.600Z,101678.28
2023-06-11T09:25:11.137Z,101669.63
2023-06-11T09:27:39.982Z,101667.06
2023-06-11T09:30:11.321Z,101668.78
2023-06-11T09:32:40.257Z,101664.75
2023-06-11T09:35:09.361Z,101672.41
2023-06-11T09:37:43.761Z,101664.41
2023-06-11T09:40:12.560Z,101662.72
2023-06-11T09:42:39.483Z,101668.25
2023-06-11T09:45:07.067Z,101667.41
2023-06-11T09:47:34.467Z,101670.34
2023-06-11T09:50:02.604Z,101664.72
2023-06-11T09:52:29.715Z,101667.91
2023-06-11T09:54:56.609Z,101668.97
2023-06-11T09:57:23.315Z,101664.56
2023-06-11T09:59:49.912Z,101668.63
2023-06-11T10:02:16.554Z,101672.72
2023-06-11T10:04:43.563Z,101667.88
2023-06-11T10:07:11.780Z,101665.03
2023-06-11T10:09:40.509Z,101662.22
2023-06-11T10:12:08.184Z,101664.59
2023-06-11T10:14:38.173Z,101665.06
2023-06-11T10:17:09.353Z,101660.41
2023-06-11T10:19:38.247Z,101661.31
2023-06-11T10:22:05.056Z,101668.59
2023-06-11T10:24:32.334Z,101665.19
2023-06-11T10:27:06.301Z,101668.44
2023-06-11T10:29:49.659Z,101664.94
2023-06-11T10:32:22.151Z,101663.97
2023-06-11T10:34:54.110Z,101661.81
2023-06-11T10:37:47.733Z,101665.31
2023-06-11T10:40:15.404Z,101657.38
2023-06-11T10:42:44.717Z,101664.50
2023-06-11T10:45:13.164Z,101665.03
2023-06-11T10:47:45.333Z,101663.75
2023-06-11T10:50:14.339Z,101662.63
2023-06-11T10:52:51.850Z,101655.44
2023-06-11T10:55:21.702Z,101661.31
2023-06-11T10:57:55.036Z,101666.00
2023-06-11T11:00:22.575Z,101659.44
2023-06-11T11:02:50.760Z,101653.13
2023-06-11T11:05:17.671Z,101650.50
2023-06-11T11:07:47.353Z,101652.78
2023-06-11T11:10:20.457Z,101645.88
2023-06-11T11:12:48.620Z,101649.41
2023-06-11T11:15:15.933Z,101642.16
2023-06-11T11:17:46.243Z,101642.06
2023-06-11T11:20:21.028Z,101643.63
2023-06-11T11:22:56.753Z,101638.72
2023-06-11T11:25:31.304Z,101638.09
2023-06-11T11:27:58.458Z,101630.00
2023-06-11T11:30:29.857Z,101632.19
2023-06-11T11:32:59.883Z,101641.13
2023-06-11T11:35:27.734Z,101631.22
2023-06-11T11:37:55.813Z,101631.22
2023-06-11T11:40:23.424Z,101634.47
2023-06-11T11:42:50.926Z,101630.97
2023-06-11T11:45:18.964Z,101630.06
2023-06-11T11:47:51.887Z,101627.69
2023-06-11T11:50:31.246Z,101632.00
2023-06-11T11:53:04.565Z,101631.91
2023-06-11T11:55:33.580Z,101625.38
2023-06-11T11:58:06.167Z,101623.91
2023-06-11T12:00:33.686Z,101625.78
2023-06-11T12:03:09.193Z,101622.13
2023-06-11T12:05:37.261Z,101624.94
2023-06-11T12:08:04.903Z,101613.88
2023-06-11T12:10:31.619Z,101615.00
2023-06-11T12:13:00.552Z,101612.69
2023-06-11T12:15:28.118Z,101612.25
2023-06-11T12:17:55.059Z,101620.72
2023-06-11T12:20:24.482Z,101622.28
2023-06-11T12:22:51.651Z,101615.44
2023-06-11T12:25:18.727Z,101613.63
2023-06-11T12:27:45.949Z,101613.09
2023-06-11T12:30:13.751Z,101612.63
2023-06-11T12:32:42.010Z,101604.31
2023-06-11T12:35:09.380Z,101604.91
2023-06-11T12:37:37.549Z,101597.28
2023-06-11T12:40:07.895Z,101604.31
2023-06-11T12:42:34.420Z,101594.75
2023-06-11T12:45:03.631Z,101594.75
2023-06-11T12:47:31.162Z,101598.06
2023-06-11T12:49:58.066Z,101594.56
2023-06-11T12:52:24.800Z,101589.41
2023-06-11T12:54:51.410Z,101593.09
2023-06-11T12:57:17.972Z,101604.91
2023-06-11T12:59:44.769Z,101590.78
2023-06-11T13:02:12.326Z,101598.84
2023-06-11T13:04:39.484Z,101599.94
2023-06-11T13:07:06.459Z,101593.13
2023-06-11T13:09:33.009Z,101589.28
2023-06-11T13:11:59.855Z,101598.66
2023-06-11T13:14:26.373Z,101598.47
2023-06-11T13:16:53.066Z,101606.72
2023-06-11T13:19:19.727Z,101593.75
2023-06-11T13:21:46.366Z,101593.41
2023-06-11T13:24:12.888Z,101590.84
2023-06-11T13:26:39.441Z,101592.44
2023-06-11T13:29:06.017Z,101582.69
2023-06-11T13:31:32.748Z,101583.56
2023-06-11T13:33:59.330Z,101594.38
2023-06-11T13:36:26.224Z,101592.44
2023-06-11T13:38:52.691Z,101589.13
2023-06-11T13:41:19.303Z,101588.13
2023-06-11T13:43:45.826Z,101584.88
2023-06-11T13:46:12.472Z,101582.59
2023-06-11T13:48:39.000Z,101581.72
2023-06-11T13:51:05.540Z,101586.72
2023-06-11T13:53:32.301Z,101586.53
2023-06-11T13:55:58.854Z,101587.75
2023-06-11T13:58:26.158Z,101585.47
2023-06-11T14:00:54.668Z,101578.28
2023-06-11T14:03:21.931Z,101589.88
2023-06-11T14:05:48.637Z,101576.72
2023-06-11T14:08:18.829Z,101573.44
2023-06-11T14:10:46.303Z,101580.88
2023-06-11T14:13:12.986Z,101580.47
2023-06-11T14:15:39.538Z,101574.16
2023-06-11T14:18:06.327Z,101575.00
2023-06-11T14:20:33.021Z,101576.44
2023-06-11T14:22:59.580Z,101580.28
2023-06-11T14:25:26.181Z,101569.34
2023-06-11T14:27:52.687Z,101568.63
2023-06-11T14:30:20.360Z,101562.56
2023-06-11T14:32:46.998Z,101560.97
2023-06-11T14:35:13.607Z,101560.97
2023-06-11T14:37:40.276Z,101562.63
2023-06-11T14:40:07.548Z,101567.06
2023-06-11T14:42:34.106Z,101563.53
2023-06-11T14:45:04.085Z,101563.91
2023-06-11T14:47:31.574Z,101556.97
2023-06-11T14:49:58.168Z,101552.38
2023-06-11T14:52:24.708Z,101549.22
2023-06-11T14:54:51.262Z,101553.59
2023-06-11T14:57:20.142Z,101547.81
2023-06-11T14:59:46.996Z,101549.50
2023-06-11T15:02:16.893Z,101547.06
2023-06-11T15:04:44.993Z,101545.38
2023-06-11T15:07:29.367Z,101535.28
2023-06-11T15:10:01.065Z,101530.75
2023-06-11T15:12:27.546Z,101530.81
2023-06-11T15:14:54.085Z,101531.59
2023-06-11T15:17:21.812Z,101530.03
2023-06-11T15:19:48.374Z,101530.47
2023-06-11T15:22:15.231Z,101522.66
2023-06-11T15:24:41.751Z,101526.88
2023-06-11T15:27:08.586Z,101530.03
2023-06-11T15:29:35.136Z,101524.94
2023-06-11T15:32:01.920Z,101521.44
2023-06-11T15:34:28.538Z,101529.59
2023-06-11T15:36:55.061Z,101517.22
2023-06-11T15:39:21.809Z,101513.34
2023-06-11T15:41:48.359Z,101508.25
2023-06-11T15:44:14.941Z,101512.88
2023-06-11T15:46:41.561Z,101521.38
2023-06-11T15:49:08.177Z,101515.53
2023-06-11T15:51:34.714Z,101514.81
2023-06-11T15:54:03.685Z,101518.31
2023-06-11T15:56:30.800Z,101509.22
2023-06-11T15:58:57.319Z,101508.44
2023-06-11T16:01:24.208Z,101510.34
2023-06-11T16:03:50.899Z,101507.63
2023-06-11T16:06:19.566Z,101516.22
2023-06-11T16:08:46.251Z,101511.88
2023-06-11T16:11:12.850Z,101509.41
2023-06-11T16:13:39.330Z,101504.41
2023-06-11T16:16:06.074Z,101509.13
2023-06-11T16:18:32.612Z,101508.72
2023-06-11T16:20:59.229Z,101498.53
2023-06-11T16:23:26.235Z,101511.72
2023-06-11T16:25:52.919Z,101516.00
2023-06-11T16:28:19.480Z,101498.13
2023-06-11T16:30:46.041Z,101494.59
2023-06-11T16:33:12.690Z,101497.75
2023-06-11T16:35:39.302Z,101504.50
2023-06-11T16:38:05.891Z,101501.34
2023-06-11T16:40:32.532Z,101506.34
2023-06-11T16:42:59.137Z,101501.25
2023-06-11T16:45:27.728Z,101501.97
2023-06-11T16:47:54.576Z,101489.44
2023-06-11T16:50:21.418Z,101501.38
2023-06-11T16:52:49.874Z,101492.78
2023-06-11T16:55:18.883Z,101491.28
2023-06-11T16:57:45.617Z,101490.50
2023-06-11T17:00:13.128Z,101486.56
2023-06-11T17:02:39.987Z,101491.97
2023-06-11T17:05:06.788Z,101488.06
2023-06-11T17:07:35.119Z,101493.22
2023-06-11T17:10:04.128Z,101495.16
2023-06-11T17:12:30.883Z,101493.59
2023-06-11T17:14:57.386Z,101495.09
2023-06-11T17:17:23.934Z,101498.53
2023-06-11T17:19:50.972Z,101498.91
2023-06-11T17:22:17.525Z,101493.47
2023-06-11T17:24:44.061Z,101497.22
2023-06-11T17:27:10.583Z,101500.22
2023-06-11T17:29:37.168Z,101499.50
2023-06-11T17:32:04.053Z,101504.84
2023-06-11T17:34:30.592Z,101505.22
2023-06-11T17:36:57.311Z,101505.13
2023-06-11T17:39:23.851Z,101501.53
2023-06-11T17:41:50.658Z,101511.63
2023-06-11T17:44:18.775Z,101504.63
2023-06-11T17:46:46.470Z,101511.47
2023-06-11T17:49:13.442Z,101507.47
2023-06-11T17:51:40.444Z,101506.50
2023-06-11T17:54:06.923Z,101513.34
2023-06-11T17:56:33.500Z,101508.19
2023-06-11T17:59:01.128Z,101507.66
2023-06-11T18:01:27.711Z,101501.00
2023-06-11T18:03:54.315Z,101510.59
2023-06-11T18:06:21.216Z,101507.44
2023-06-11T18:08:47.755Z,101515.88
2023-06-11T18:11:14.374Z,101503.00
2023-06-11T18:13:40.940Z,101506.84
2023-06-11T18:16:07.563Z,101509.47
2023-06-11T18:18:34.269Z,101506.69
2023-06-11T18:21:00.867Z,101512.47
2023-06-11T18:23:27.367Z,101510.78
2023-06-11T18:25:54.040Z,101507.19
2023-06-11T18:28:21.231Z,101516.72
2023-06-11T18:31:22.749Z,101518.22
2023-06-11T18:33:49.554Z,101505.97
2023-06-11T18:39:37.610Z,101514.00
2023-06-11T18:42:14.153Z,101507.25
2023-06-11T18:44:40.884Z,101516.41
2023-06-11T18:56:17.108Z,101518.09
2023-06-11T18:58:51.924Z,101530.34
2023-06-11T19:01:21.237Z,101529.00
2023-06-11T19:03:48.172Z,101531.16
2023-06-11T19:06:15.028Z,101543.03
2023-06-11T19:08:47.780Z,101538.66
2023-06-11T19:11:14.409Z,101540.47
2023-06-11T19:13:47.893Z,101548.84
2023-06-11T19:16:15.581Z,101549.84
2023-06-11T19:18:42.453Z,101547.81
2023-06-11T19:21:11.573Z,101553.00
2023-06-11T19:23:38.353Z,101554.72
2023-06-11T19:26:05.179Z,101561.63
2023-06-11T19:28:31.752Z,101560.94
2023-06-11T19:30:58.429Z,101563.88
2023-06-11T19:33:25.288Z,101559.81
2023-06-11T19:35:51.972Z,101564.31
2023-06-11T19:40:53.973Z,101569.75
2023-06-11T19:43:20.558Z,101569.16
2023-06-11T19:45:47.100Z,101570.47
2023-06-11T19:48:13.903Z,101571.69
2023-06-11T19:50:40.575Z,101572.59
2023-06-11T19:53:07.152Z,101582.06
2023-06-11T19:55:35.019Z,101582.94
2023-06-11T19:58:03.247Z,101583.47
2023-06-11T20:00:29.810Z,101582.91
2023-06-11T20:02:56.392Z,101586.94
2023-06-11T20:05:22.986Z,101591.44
2023-06-11T20:07:49.600Z,101594.66
2023-06-11T20:10:16.203Z,101594.84
2023-06-11T20:12:42.847Z,101603.97
2023-06-11T20:15:10.000Z,101601.31
2023-06-11T20:17:37.620Z,101604.53
2023-06-11T20:20:04.520Z,101610.19
2023-06-11T20:22:32.468Z,101612.75
2023-06-11T20:24:59.307Z,101616.44
2023-06-11T20:27:25.967Z,101621.22
2023-06-11T20:29:52.828Z,101623.78
2023-06-11T20:32:23.948Z,101619.69
2023-06-11T20:34:50.909Z,101628.00
2023-06-11T20:37:17.548Z,101630.09
2023-06-11T20:39:44.274Z,101633.28
2023-06-11T20:42:11.139Z,101632.34
2023-06-11T20:47:39.476Z,101634.78
2023-06-11T20:50:07.430Z,101641.16
2023-06-11T20:52:35.429Z,101633.22
2023-06-11T20:55:02.190Z,101636.56
2023-06-11T20:57:29.076Z,101636.78
2023-06-11T20:59:55.787Z,101640.59
2023-06-11T21:02:22.326Z,101632.00
2023-06-11T21:04:49.161Z,101636.31
2023-06-11T21:07:16.649Z,101635.06
2023-06-11T21:09:43.248Z,101634.44
2023-06-11T21:12:13.310Z,101642.72
2023-06-11T21:14:39.814Z,101635.09
2023-06-11T21:17:06.452Z,101640.03
2023-06-11T21:19:33.047Z,101632.88
2023-06-11T21:21:59.575Z,101631.16
2023-06-11T21:24:26.137Z,101640.19
2023-06-11T21:26:53.360Z,101635.28
2023-06-11T21:29:20.098Z,101633.53
2023-06-11T21:31:46.759Z,101635.28
2023-06-11T21:34:13.437Z,101637.50
2023-06-11T21:36:39.921Z,101633.41
2023-06-11T21:39:06.678Z,101632.94
2023-06-11T21:41:33.270Z,101629.94
2023-06-11T21:43:59.997Z,101628.50
2023-06-11T21:46:26.647Z,101631.81
2023-06-11T21:48:53.375Z,101634.69
2023-06-11T21:51:21.259Z,101639.13
2023-06-11T21:53:47.846Z,101643.25
2023-06-11T21:56:14.352Z,101643.88
2023-06-11T21:58:41.142Z,101650.69
2023-06-11T22:01:07.746Z,101643.53
2023-06-11T22:03:34.465Z,101648.78
2023-06-11T22:06:04.042Z,101648.28
2023-06-11T22:08:31.458Z,101651.63
2023-06-11T22:10:57.991Z,101663.03
2023-06-11T22:13:24.658Z,101657.63
2023-06-11T22:15:51.281Z,101670.31
2023-06-11T22:18:17.949Z,101661.72
2023-06-11T22:20:44.479Z,101663.81
2023-06-11T22:23:11.921Z,101664.44
2023-06-11T22:25:38.554Z,101657.44
2023-06-11T22:28:05.314Z,101659.50
2023-06-11T22:30:38.099Z,101663.59
2023-06-11T22:33:14.425Z,101661.84
2023-06-11T22:35:40.992Z,101670.06
2023-06-11T22:38:07.546Z,101674.03
2023-06-11T22:40:34.053Z,101668.47
2023-06-11T22:43:00.598Z,101671.47
2023-06-11T22:45:27.160Z,101676.38
2023-06-11T22:47:54.780Z,101672.28
2023-06-11T22:50:21.455Z,101673.69
2023-06-11T22:52:50.647Z,101678.56
2023-06-11T22:55:18.470Z,101674.09
2023-06-11T22:57:45.178Z,101677.72
2023-06-11T23:00:12.562Z,101678.63
2023-06-11T23:02:39.449Z,101675.28
2023-06-11T23:05:08.032Z,101670.81
2023-06-11T23:07:38.613Z,101675.22
2023-06-11T23:10:05.894Z,101675.88
2023-06-11T23:12:40.821Z,101675.22
2023-06-11T23:15:07.977Z,101672.03
2023-06-11T23:17:34.716Z,101671.22
2023-06-11T23:20:02.625Z,101674.06
2023-06-11T23:22:29.909Z,101677.66
2023-06-11T23:24:56.423Z,101679.38
2023-06-11T23:27:22.945Z,101685.38
2023-06-11T23:29:49.765Z,101672.03
2023-06-11T23:32:16.477Z,101672.69
2023-06-11T23:34:43.396Z,101671.69
2023-06-11T23:37:10.676Z,101671.78
2023-06-11T23:39:37.273Z,101669.69
2023-06-11T23:42:04.048Z,101669.22
2023-06-11T23:44:30.659Z,101671.41
2023-06-11T23:46:57.255Z,101673.72
2023-06-11T23:49:23.778Z,101675.44
2023-06-11T23:51:50.624Z,101668.16
2023-06-11T23:54:17.221Z,101669.84
2023-06-11T23:56:43.728Z,101672.50
2023-06-11T23:59:10.829Z,101662.66
